Time;durP1;ratioP1;P1;durP2;ratioP2;P2;SDS_P1;SDS_P2;PMS_P1;PMS_P2;Temp;Humidity;BMP_temperature;BMP_pressure;BME280_temperature;BME280_humidity;BME280_pressure;Samples;Min_cycle;Max_cycle;Signal;HPM_P1;HPM_P2
2021/12/23 00:00:27;;;;;;;100.43;47.35;;;;;;;;;;5030378;28;20025;-48
2021/12/23 00:02:53;;;;;;;96.25;45.38;;;;;;;;;;5030804;28;20029;-46
2021/12/23 00:05:19;;;;;;;86.82;41.88;;;;;;;;;;5030835;28;20025;-43
2021/12/23 00:07:45;;;;;;;91.50;42.65;;;;;;;;;;5045466;28;20029;-48
2021/12/23 00:10:13;;;;;;;82.47;41.78;;;;;;;;;;5054099;28;20051;-45
2021/12/23 00:12:41;;;;;;;81.57;42.78;;;;;;;;;;5043042;28;20039;-48
2021/12/23 00:15:15;;;;;;;86.35;40.55;;;;;;;;;;5033955;28;20045;-44
2021/12/23 00:25:42;;;;;;;78.82;37.20;;;;;;;;;;5031757;28;19921;-48
2021/12/23 00:28:08;;;;;;;76.43;35.25;;;;;;;;;;5033862;28;20083;-46
2021/12/23 00:30:34;;;;;;;72.85;34.50;;;;;;;;;;5033587;28;20036;-47
2021/12/23 00:33:00;;;;;;;73.18;34.28;;;;;;;;;;5033635;28;20151;-47
2021/12/23 00:35:26;;;;;;;78.80;37.47;;;;;;;;;;5033461;28;20053;-48
2021/12/23 00:37:59;;;;;;;76.90;35.00;;;;;;;;;;5032092;28;20474;-48
2021/12/23 00:40:26;;;;;;;71.32;31.98;;;;;;;;;;5033421;28;20033;-48
2021/12/23 00:42:52;;;;;;;70.70;34.25;;;;;;;;;;5033061;28;20022;-48
2021/12/23 00:45:18;;;;;;;65.90;33.50;;;;;;;;;;5033493;28;20121;-47
2021/12/23 00:47:44;;;;;;;62.85;29.30;;;;;;;;;;5033402;28;20741;-47
2021/12/23 00:50:10;;;;;;;68.20;32.85;;;;;;;;;;5033401;28;20100;-46
2021/12/23 00:52:40;;;;;;;61.60;30.45;;;;;;;;;;5033282;28;20093;-48
2021/12/23 00:55:07;;;;;;;67.18;29.42;;;;;;;;;;5032652;28;20037;-45
2021/12/23 00:57:38;;;;;;;58.45;29.23;;;;;;;;;;5033158;28;20025;-44
2021/12/23 01:00:08;;;;;;;66.05;30.52;;;;;;;;;;5032480;28;20017;-46
2021/12/23 01:02:34;;;;;;;74.28;33.58;;;;;;;;;;5032876;28;20489;-47
2021/12/23 01:05:02;;;;;;;62.92;30.08;;;;;;;;;;5031822;28;20033;-48
2021/12/23 01:07:30;;;;;;;66.88;31.27;;;;;;;;;;5033096;28;20457;-49
2021/12/23 01:09:56;;;;;;;75.63;33.10;;;;;;;;;;5032397;28;20029;-46
2021/12/23 01:12:28;;;;;;;69.57;34.25;;;;;;;;;;5033089;28;20100;-46
2021/12/23 01:15:09;;;;;;;;;;;;;;;;;;5033366;28;20481;-43
2021/12/23 01:17:53;;;;;;;73.38;33.63;;;;;;;;;;5032876;28;20423;-45
2021/12/23 01:20:25;;;;;;;96.65;43.75;;;;;;;;;;5033045;28;20033;-47
2021/12/23 01:22:51;;;;;;;87.47;38.40;;;;;;;;;;5033370;28;20108;-45
2021/12/23 01:25:18;;;;;;;88.82;37.55;;;;;;;;;;5033018;28;20032;-48
2021/12/23 01:27:44;;;;;;;74.88;35.80;;;;;;;;;;5032867;28;20049;-46
2021/12/23 01:30:10;;;;;;;78.25;36.53;;;;;;;;;;5032839;28;20394;-47
2021/12/23 01:32:36;;;;;;;73.68;34.58;;;;;;;;;;5030548;28;20017;-50
2021/12/23 01:35:02;;;;;;;73.53;32.35;;;;;;;;;;5032862;28;20477;-47
2021/12/23 01:37:29;;;;;;;75.05;35.20;;;;;;;;;;5035013;28;20041;-50
2021/12/23 01:39:55;;;;;;;71.85;32.47;;;;;;;;;;5037005;28;20101;-47
2021/12/23 01:42:21;;;;;;;66.50;31.65;;;;;;;;;;5036563;28;20021;-48
2021/12/23 01:44:47;;;;;;;62.72;29.40;;;;;;;;;;5036806;28;20477;-50
2021/12/23 01:47:13;;;;;;;68.45;31.55;;;;;;;;;;5036818;28;20029;-51
2021/12/23 01:49:39;;;;;;;80.70;35.50;;;;;;;;;;5036825;28;20453;-49
2021/12/23 01:52:05;;;;;;;63.50;31.00;;;;;;;;;;5036883;28;20017;-48
2021/12/23 01:54:31;;;;;;;57.90;28.75;;;;;;;;;;5036508;28;20038;-49
2021/12/23 01:56:58;;;;;;;59.13;29.08;;;;;;;;;;5036757;28;20032;-50
2021/12/23 01:59:24;;;;;;;66.60;30.52;;;;;;;;;;5036713;28;20385;-52
2021/12/23 02:01:50;;;;;;;62.33;29.40;;;;;;;;;;5036733;28;20346;-51
2021/12/23 02:04:16;;;;;;;62.28;27.55;;;;;;;;;;5036452;28;20037;-52
2021/12/23 02:06:42;;;;;;;54.80;26.13;;;;;;;;;;5036459;28;20044;-52
2021/12/23 02:09:08;;;;;;;58.42;28.60;;;;;;;;;;5036473;28;20358;-48
2021/12/23 02:11:34;;;;;;;57.90;24.48;;;;;;;;;;5036416;28;20026;-51
2021/12/23 02:14:01;;;;;;;64.95;28.50;;;;;;;;;;5036381;28;20103;-51
2021/12/23 02:16:29;;;;;;;65.13;31.05;;;;;;;;;;5036059;28;20037;-51
2021/12/23 02:18:55;;;;;;;46.45;22.30;;;;;;;;;;5035241;28;20526;-50
2021/12/23 02:21:21;;;;;;;52.97;25.77;;;;;;;;;;5036452;28;20021;-51
2021/12/23 02:23:47;;;;;;;46.60;22.67;;;;;;;;;;5036474;28;20029;-52
2021/12/23 02:26:13;;;;;;;50.45;23.50;;;;;;;;;;5036116;28;20030;-50
2021/12/23 02:28:39;;;;;;;43.92;21.73;;;;;;;;;;5036501;28;20453;-51
2021/12/23 02:31:06;;;;;;;47.33;22.77;;;;;;;;;;5036220;28;20032;-51
2021/12/23 02:33:34;;;;;;;44.33;22.45;;;;;;;;;;5036188;28;20478;-51
2021/12/23 02:36:00;;;;;;;42.75;20.25;;;;;;;;;;5035830;28;20034;-51
2021/12/23 02:38:27;;;;;;;42.58;20.75;;;;;;;;;;5036351;28;20018;-49
2021/12/23 02:40:53;;;;;;;37.67;20.75;;;;;;;;;;5036073;28;20025;-54
2021/12/23 02:43:20;;;;;;;45.80;22.98;;;;;;;;;;5036510;28;20026;-51
2021/12/23 02:45:47;;;;;;;42.58;19.65;;;;;;;;;;5035899;28;20036;-52
2021/12/23 02:48:14;;;;;;;40.45;20.60;;;;;;;;;;5035371;28;20021;-54
2021/12/23 02:50:41;;;;;;;47.33;22.48;;;;;;;;;;5035825;28;20029;-51
2021/12/23 02:53:07;;;;;;;46.28;21.50;;;;;;;;;;5035924;28;20030;-51
2021/12/23 02:55:33;;;;;;;47.55;23.75;;;;;;;;;;5035740;28;20068;-51
2021/12/23 02:57:59;;;;;;;49.03;23.13;;;;;;;;;;5035984;28;20026;-53
2021/12/23 03:00:25;;;;;;;49.17;24.45;;;;;;;;;;5035502;28;20473;-52
2021/12/23 03:02:51;;;;;;;50.45;24.35;;;;;;;;;;5035808;28;20056;-51
2021/12/23 03:05:18;;;;;;;49.17;24.10;;;;;;;;;;5035484;28;20034;-53
2021/12/23 03:07:44;;;;;;;47.85;23.55;;;;;;;;;;5035488;28;20025;-51
2021/12/23 03:10:10;;;;;;;52.53;24.48;;;;;;;;;;5035517;28;20038;-51
2021/12/23 03:12:36;;;;;;;45.83;24.50;;;;;;;;;;5035475;28;20532;-51
2021/12/23 03:15:03;;;;;;;44.28;23.75;;;;;;;;;;5035399;28;20037;-50
2021/12/23 03:17:30;;;;;;;47.10;23.88;;;;;;;;;;5035061;28;20037;-49
2021/12/23 03:19:58;;;;;;;53.50;26.65;;;;;;;;;;5035509;28;20025;-50
2021/12/23 03:22:24;;;;;;;51.50;25.50;;;;;;;;;;5035366;28;20044;-50
2021/12/23 03:24:50;;;;;;;50.55;25.50;;;;;;;;;;5035277;28;20037;-51
2021/12/23 03:27:17;;;;;;;47.67;23.45;;;;;;;;;;5035111;28;20492;-50
2021/12/23 03:29:43;;;;;;;45.10;23.25;;;;;;;;;;5035108;28;20025;-51
2021/12/23 03:32:11;;;;;;;49.72;24.42;;;;;;;;;;5035065;28;20462;-50
2021/12/23 03:34:39;;;;;;;45.65;22.08;;;;;;;;;;5035141;28;20055;-53
2021/12/23 03:37:05;;;;;;;41.88;21.50;;;;;;;;;;5034841;28;20032;-50
2021/12/23 03:39:31;;;;;;;43.25;22.48;;;;;;;;;;5035179;28;20033;-51
2021/12/23 03:41:57;;;;;;;44.13;22.73;;;;;;;;;;5034736;28;20477;-51
2021/12/23 03:44:24;;;;;;;47.83;24.92;;;;;;;;;;5034736;28;20041;-50
2021/12/23 03:46:50;;;;;;;43.10;22.63;;;;;;;;;;5034717;28;20481;-51
2021/12/23 03:49:16;;;;;;;45.85;22.08;;;;;;;;;;5034819;28;20049;-50
2021/12/23 03:51:42;;;;;;;47.15;22.45;;;;;;;;;;5034718;28;20028;-51
2021/12/23 03:54:08;;;;;;;53.20;25.95;;;;;;;;;;5034500;28;20539;-51
2021/12/23 03:56:34;;;;;;;48.85;22.25;;;;;;;;;;5034559;28;20079;-52
2021/12/23 03:59:00;;;;;;;43.25;21.25;;;;;;;;;;5034028;28;20061;-51
2021/12/23 04:01:28;;;;;;;43.92;21.33;;;;;;;;;;5034224;28;20024;-51
2021/12/23 04:03:54;;;;;;;43.78;20.92;;;;;;;;;;5034578;28;20085;-52
2021/12/23 04:06:21;;;;;;;42.60;19.90;;;;;;;;;;5034328;28;20022;-52
2021/12/23 04:08:48;;;;;;;40.50;20.70;;;;;;;;;;5034220;28;20026;-50
2021/12/23 04:11:14;;;;;;;38.88;20.20;;;;;;;;;;5034396;28;20022;-51
2021/12/23 04:13:42;;;;;;;41.67;20.17;;;;;;;;;;5034067;28;20124;-49
2021/12/23 04:16:09;;;;;;;41.47;20.25;;;;;;;;;;5034018;28;20025;-50
2021/12/23 04:18:35;;;;;;;39.40;19.77;;;;;;;;;;5034179;28;20041;-51
2021/12/23 04:21:03;;;;;;;39.67;19.65;;;;;;;;;;5033972;28;20017;-52
2021/12/23 04:23:30;;;;;;;37.67;19.20;;;;;;;;;;5034085;28;20048;-50
2021/12/23 04:25:57;;;;;;;38.25;20.10;;;;;;;;;;5034082;28;20033;-49
2021/12/23 04:28:24;;;;;;;39.10;20.55;;;;;;;;;;5034063;28;20108;-50
2021/12/23 04:30:50;;;;;;;37.65;19.65;;;;;;;;;;5033856;28;20109;-49
2021/12/23 04:33:16;;;;;;;37.38;20.25;;;;;;;;;;5033970;28;20057;-51
2021/12/23 04:35:43;;;;;;;39.85;21.00;;;;;;;;;;5033758;28;20456;-50
2021/12/23 04:38:09;;;;;;;40.97;20.65;;;;;;;;;;5033950;28;20031;-50
2021/12/23 04:40:35;;;;;;;42.08;21.48;;;;;;;;;;5033984;28;20029;-49
2021/12/23 04:43:02;;;;;;;40.10;20.65;;;;;;;;;;5033771;28;20489;-49
2021/12/23 04:45:28;;;;;;;39.70;20.35;;;;;;;;;;5033913;28;20030;-50
2021/12/23 04:47:54;;;;;;;38.70;20.02;;;;;;;;;;5033767;28;20119;-48
2021/12/23 04:50:20;;;;;;;39.15;20.40;;;;;;;;;;5033655;28;20100;-47
2021/12/23 04:52:47;;;;;;;42.80;21.92;;;;;;;;;;5033458;28;20103;-50
2021/12/23 04:55:13;;;;;;;43.75;21.85;;;;;;;;;;5033455;28;20044;-50
2021/12/23 04:57:40;;;;;;;46.28;22.33;;;;;;;;;;5033595;28;20029;-50
2021/12/23 05:00:08;;;;;;;42.22;21.73;;;;;;;;;;5033406;28;20032;-51
2021/12/23 05:02:34;;;;;;;45.35;22.95;;;;;;;;;;5033597;28;20101;-50
2021/12/23 05:05:00;;;;;;;45.28;23.15;;;;;;;;;;5033444;28;20028;-51
2021/12/23 05:07:26;;;;;;;46.00;22.23;;;;;;;;;;5033259;28;20053;-51
2021/12/23 05:09:52;;;;;;;45.45;23.45;;;;;;;;;;5033414;28;20049;-51
2021/12/23 05:12:20;;;;;;;54.17;23.85;;;;;;;;;;5033381;28;20029;-51
2021/12/23 05:14:46;;;;;;;59.85;27.00;;;;;;;;;;5033373;28;20026;-50
2021/12/23 05:17:13;;;;;;;67.18;28.23;;;;;;;;;;5031996;28;20046;-49
2021/12/23 05:19:39;;;;;;;58.15;25.70;;;;;;;;;;5033448;28;20071;-51
2021/12/23 05:22:05;;;;;;;53.95;25.17;;;;;;;;;;5033234;28;20087;-51
2021/12/23 05:24:32;;;;;;;58.35;26.60;;;;;;;;;;5033109;28;20539;-49
2021/12/23 05:26:58;;;;;;;50.38;24.50;;;;;;;;;;5033523;28;20045;-49
2021/12/23 05:29:24;;;;;;;52.38;25.33;;;;;;;;;;5033272;28;20124;-50
2021/12/23 05:31:50;;;;;;;46.15;23.38;;;;;;;;;;5033218;28;20026;-52
2021/12/23 05:34:16;;;;;;;50.55;23.20;;;;;;;;;;5033117;28;20037;-51
2021/12/23 05:36:42;;;;;;;52.55;25.70;;;;;;;;;;5033139;28;20381;-49
2021/12/23 05:39:13;;;;;;;51.10;24.58;;;;;;;;;;5033336;28;20075;-51
2021/12/23 05:41:39;;;;;;;53.88;25.50;;;;;;;;;;5033061;28;20024;-45
2021/12/23 05:44:06;;;;;;;50.50;24.95;;;;;;;;;;5033290;28;20014;-44
2021/12/23 05:46:32;;;;;;;51.22;25.98;;;;;;;;;;5033099;28;20515;-45
2021/12/23 05:49:02;;;;;;;54.38;25.42;;;;;;;;;;5032951;28;20036;-47
2021/12/23 05:51:28;;;;;;;55.25;25.73;;;;;;;;;;5032864;28;20512;-51
2021/12/23 05:53:59;;;;;;;56.30;26.67;;;;;;;;;;5033185;28;20052;-51
2021/12/23 05:56:25;;;;;;;48.80;24.23;;;;;;;;;;5032878;28;20116;-54
2021/12/23 05:58:51;;;;;;;48.92;24.73;;;;;;;;;;5033331;28;20113;-53
2021/12/23 06:01:20;;;;;;;61.35;28.00;;;;;;;;;;5032814;28;20436;-48
2021/12/23 06:03:46;;;;;;;71.82;31.05;;;;;;;;;;5032917;28;20052;-50
2021/12/23 06:06:13;;;;;;;65.10;31.38;;;;;;;;;;5033019;28;20079;-49
2021/12/23 06:08:39;;;;;;;69.75;30.77;;;;;;;;;;5033117;28;20026;-48
2021/12/23 06:11:05;;;;;;;69.00;29.25;;;;;;;;;;5032931;28;20083;-50
2021/12/23 06:13:31;;;;;;;69.35;29.55;;;;;;;;;;5032639;28;20060;-50
2021/12/23 06:15:58;;;;;;;82.43;34.28;;;;;;;;;;5032564;28;20022;-50
2021/12/23 06:18:24;;;;;;;87.15;35.78;;;;;;;;;;5032896;28;20032;-51
2021/12/23 06:20:50;;;;;;;82.50;36.42;;;;;;;;;;5032578;28;20061;-50
2021/12/23 06:23:16;;;;;;;87.82;37.85;;;;;;;;;;5034571;28;20033;-49
2021/12/23 06:25:42;;;;;;;95.15;39.88;;;;;;;;;;5036193;28;20551;-49
2021/12/23 06:28:08;;;;;;;99.75;42.17;;;;;;;;;;5036386;28;20091;-50
2021/12/23 06:30:34;;;;;;;127.68;47.47;;;;;;;;;;5036158;28;20108;-48
2021/12/23 06:33:01;;;;;;;133.18;49.08;;;;;;;;;;5035949;28;20032;-50
2021/12/23 06:35:28;;;;;;;127.20;45.80;;;;;;;;;;5035929;28;20037;-51
2021/12/23 06:37:55;;;;;;;123.65;47.63;;;;;;;;;;5035934;28;20474;-50
2021/12/23 06:40:21;;;;;;;100.18;41.60;;;;;;;;;;5035964;28;20048;-49
2021/12/23 06:42:48;;;;;;;81.03;39.05;;;;;;;;;;5036202;28;20478;-50
2021/12/23 06:45:14;;;;;;;69.82;34.30;;;;;;;;;;5036105;28;20496;-50
2021/12/23 06:47:41;;;;;;;65.15;31.05;;;;;;;;;;5035874;28;20105;-50
2021/12/23 06:50:08;;;;;;;54.63;27.30;;;;;;;;;;5035850;28;20061;-50
2021/12/23 06:52:35;;;;;;;54.92;26.25;;;;;;;;;;5035675;28;20022;-49
2021/12/23 06:55:01;;;;;;;54.42;26.55;;;;;;;;;;5035833;28;20389;-51
2021/12/23 06:57:28;;;;;;;67.75;30.13;;;;;;;;;;5035874;28;20025;-50
2021/12/23 06:59:56;;;;;;;73.38;31.63;;;;;;;;;;5035911;28;20030;-50
2021/12/23 07:02:24;;;;;;;79.70;38.45;;;;;;;;;;5035622;28;20040;-50
2021/12/23 07:04:50;;;;;;;73.00;34.15;;;;;;;;;;5035510;28;20442;-50
2021/12/23 07:07:27;;;;;;;72.65;34.83;;;;;;;;;;5035470;28;20105;-50
2021/12/23 07:09:56;;;;;;;62.78;30.33;;;;;;;;;;5035613;28;20018;-49
2021/12/23 07:12:23;;;;;;;54.90;26.75;;;;;;;;;;5035337;28;20017;-50
2021/12/23 07:14:49;;;;;;;55.97;26.33;;;;;;;;;;5035546;28;20038;-50
2021/12/23 07:17:16;;;;;;;53.72;26.55;;;;;;;;;;5035251;28;20053;-50
2021/12/23 07:19:42;;;;;;;59.63;29.13;;;;;;;;;;5035318;28;20040;-50
2021/12/23 07:22:08;;;;;;;76.40;31.80;;;;;;;;;;5035392;28;20423;-49
2021/12/23 07:24:37;;;;;;;66.32;32.78;;;;;;;;;;5034990;28;20037;-50
2021/12/23 07:27:03;;;;;;;63.63;31.35;;;;;;;;;;5035169;28;20017;-51
2021/12/23 07:29:29;;;;;;;55.70;28.83;;;;;;;;;;5035263;28;20032;-51
2021/12/23 07:31:55;;;;;;;55.10;28.23;;;;;;;;;;5035355;28;20017;-50
2021/12/23 07:34:21;;;;;;;48.75;25.02;;;;;;;;;;5033803;28;20564;-51
2021/12/23 07:36:47;;;;;;;52.17;26.63;;;;;;;;;;5034810;28;20469;-49
2021/12/23 07:39:13;;;;;;;51.97;26.65;;;;;;;;;;5035015;28;20036;-49
2021/12/23 07:41:39;;;;;;;63.30;30.27;;;;;;;;;;5035060;28;20021;-50
2021/12/23 07:44:07;;;;;;;60.03;29.13;;;;;;;;;;5034980;28;20060;-49
2021/12/23 07:46:41;;;;;;;73.60;35.40;;;;;;;;;;5035063;28;20018;-50
2021/12/23 07:49:07;;;;;;;75.30;35.67;;;;;;;;;;5034617;28;20155;-49
2021/12/23 07:51:36;;;;;;;62.17;30.38;;;;;;;;;;5034651;28;20418;-50
2021/12/23 07:54:02;;;;;;;68.05;30.10;;;;;;;;;;5034652;28;20033;-50
2021/12/23 07:56:28;;;;;;;50.70;27.02;;;;;;;;;;5034432;28;20033;-50
2021/12/23 07:58:54;;;;;;;52.08;26.17;;;;;;;;;;5034660;28;20057;-50
2021/12/23 08:01:20;;;;;;;55.60;28.20;;;;;;;;;;5034479;28;20021;-50
2021/12/23 08:03:47;;;;;;;59.75;29.77;;;;;;;;;;5034239;28;20097;-50
2021/12/23 08:06:13;;;;;;;61.20;29.75;;;;;;;;;;5034498;28;20470;-52
2021/12/23 08:08:39;;;;;;;62.17;29.23;;;;;;;;;;5034480;28;20503;-51
2021/12/23 08:11:06;;;;;;;63.75;30.35;;;;;;;;;;5034455;28;20021;-50
2021/12/23 08:13:32;;;;;;;66.05;28.95;;;;;;;;;;5034296;28;20025;-51
2021/12/23 08:16:00;;;;;;;62.72;28.30;;;;;;;;;;5034179;28;20033;-52
2021/12/23 08:18:26;;;;;;;65.35;29.65;;;;;;;;;;5033967;28;20501;-49
2021/12/23 08:20:52;;;;;;;58.15;28.00;;;;;;;;;;5034316;28;20159;-50
2021/12/23 08:23:19;;;;;;;62.47;29.73;;;;;;;;;;5034391;28;20159;-51
2021/12/23 08:25:45;;;;;;;56.40;26.48;;;;;;;;;;5033924;28;20109;-50
2021/12/23 08:28:14;;;;;;;56.35;27.50;;;;;;;;;;5034152;28;20474;-49
2021/12/23 08:30:41;;;;;;;61.22;28.98;;;;;;;;;;5033840;28;20024;-46
2021/12/23 08:33:07;;;;;;;63.90;31.02;;;;;;;;;;5033737;28;20034;-49
2021/12/23 08:35:33;;;;;;;62.47;29.67;;;;;;;;;;5033920;28;20081;-50
2021/12/23 08:38:00;;;;;;;60.53;31.17;;;;;;;;;;5033854;28;20024;-49
2021/12/23 08:40:27;;;;;;;58.75;30.50;;;;;;;;;;5033916;28;20111;-49
2021/12/23 08:42:56;;;;;;;72.03;34.92;;;;;;;;;;5033682;28;20055;-50
2021/12/23 08:45:25;;;;;;;75.40;32.63;;;;;;;;;;5033429;28;20028;-50
2021/12/23 08:47:54;;;;;;;67.75;31.48;;;;;;;;;;5033682;28;20033;-50
2021/12/23 08:50:20;;;;;;;72.65;33.33;;;;;;;;;;5033709;28;20469;-50
2021/12/23 08:52:46;;;;;;;71.72;33.55;;;;;;;;;;5033584;28;20108;-50
2021/12/23 08:55:13;;;;;;;57.25;29.23;;;;;;;;;;5033336;28;20053;-50
2021/12/23 08:57:39;;;;;;;68.78;31.60;;;;;;;;;;5033499;28;20080;-49
2021/12/23 09:00:06;;;;;;;74.82;34.72;;;;;;;;;;5033486;28;20026;-51
2021/12/23 09:02:33;;;;;;;74.18;32.70;;;;;;;;;;5033269;28;20087;-49
2021/12/23 09:04:59;;;;;;;61.88;30.17;;;;;;;;;;5033516;28;20795;-51
2021/12/23 09:07:25;;;;;;;59.83;27.83;;;;;;;;;;5033263;28;20017;-52
2021/12/23 09:09:57;;;;;;;68.72;32.85;;;;;;;;;;5033113;28;20025;-51
2021/12/23 09:12:23;;;;;;;69.13;35.42;;;;;;;;;;5033385;28;20022;-51
2021/12/23 09:14:50;;;;;;;77.57;37.95;;;;;;;;;;5033114;28;20038;-52
2021/12/23 09:17:17;;;;;;;82.65;39.30;;;;;;;;;;5032998;28;20401;-51
2021/12/23 09:19:44;;;;;;;65.72;35.38;;;;;;;;;;5033130;28;20037;-50
2021/12/23 09:22:11;;;;;;;75.18;36.08;;;;;;;;;;5033146;28;20477;-53
2021/12/23 09:24:40;;;;;;;72.50;35.67;;;;;;;;;;5033001;28;20055;-48
2021/12/23 09:27:21;;;;;;;77.45;37.45;;;;;;;;;;5033121;28;20052;-52
2021/12/23 09:35:00;;;;;;;88.63;44.05;;;;;;;;;;5033081;28;20032;-49
2021/12/23 09:37:27;;;;;;;70.80;36.50;;;;;;;;;;5033060;28;20068;-53
2021/12/23 09:39:57;;;;;;;78.28;40.92;;;;;;;;;;5032971;28;20064;-48
2021/12/23 09:42:28;;;;;;;67.35;36.15;;;;;;;;;;5032977;28;20083;-51
2021/12/23 09:44:58;;;;;;;73.88;36.60;;;;;;;;;;5032927;28;20025;-52
2021/12/23 09:47:26;;;;;;;76.45;38.38;;;;;;;;;;5032990;28;20481;-53
2021/12/23 09:49:53;;;;;;;81.72;40.63;;;;;;;;;;5032364;28;20057;-47
2021/12/23 09:52:19;;;;;;;94.88;40.58;;;;;;;;;;5032713;28;20033;-54
2021/12/23 09:54:45;;;;;;;87.60;42.08;;;;;;;;;;5032837;28;20557;-53
2021/12/23 09:57:12;;;;;;;75.80;36.90;;;;;;;;;;5032816;28;20109;-44
2021/12/23 09:59:40;;;;;;;76.47;37.95;;;;;;;;;;5035848;28;20041;-57
2021/12/23 10:02:09;;;;;;;78.30;38.13;;;;;;;;;;5036076;28;20022;-54
2021/12/23 10:04:38;;;;;;;71.10;35.50;;;;;;;;;;5035824;28;20034;-44
2021/12/23 10:07:04;;;;;;;70.45;36.38;;;;;;;;;;5035450;28;20032;-59
2021/12/23 10:09:42;;;;;;;74.90;38.50;;;;;;;;;;5036392;28;20037;-49
2021/12/23 10:31:27;;;;;;;69.95;35.67;;;;;;;;;;5036333;28;20027;-51
2021/12/23 10:37:23;;;;;;;74.15;38.00;;;;;;;;;;5036292;28;20053;-50
2021/12/23 10:39:51;;;;;;;72.72;37.13;;;;;;;;;;5036145;28;20030;-51
2021/12/23 10:42:19;;;;;;;73.63;38.05;;;;;;;;;;5035938;28;20029;-51
2021/12/23 10:44:49;;;;;;;81.68;39.55;;;;;;;;;;5036077;28;20362;-53
2021/12/23 10:47:36;;;;;;;85.30;40.15;;;;;;;;;;5035864;28;20029;-52
2021/12/23 10:50:15;;;;;;;72.63;37.88;;;;;;;;;;5034316;28;20128;-51
2021/12/23 10:52:48;;;;;;;79.32;39.95;;;;;;;;;;5035894;28;20026;-53
2021/12/23 11:00:26;;;;;;;73.97;35.95;;;;;;;;;;5033710;28;20030;-48
2021/12/23 11:03:11;;;;;;;92.28;43.33;;;;;;;;;;5034918;28;20049;-52
2021/12/23 11:05:40;;;;;;;83.25;42.17;;;;;;;;;;5035170;28;20036;-52
2021/12/23 11:38:09;;;;;;;85.95;43.75;;;;;;;;;;5034861;28;20026;-52
2021/12/23 11:45:45;;;;;;;77.10;38.13;;;;;;;;;;5033514;28;20034;-54
2021/12/23 11:48:13;;;;;;;82.10;42.65;;;;;;;;;;5033240;28;20021;-53
2021/12/23 11:50:54;;;;;;;69.50;37.47;;;;;;;;;;5034371;28;20048;-50
2021/12/23 11:53:21;;;;;;;75.38;39.38;;;;;;;;;;5034481;28;20026;-51
2021/12/23 11:55:50;;;;;;;74.25;39.80;;;;;;;;;;5034309;28;20049;-56
2021/12/23 11:58:16;;;;;;;77.75;37.63;;;;;;;;;;5034614;28;20378;-56
2021/12/23 12:00:45;;;;;;;83.70;41.15;;;;;;;;;;5034461;28;20029;-55
2021/12/23 12:03:12;;;;;;;85.57;45.00;;;;;;;;;;5034507;28;20516;-56
2021/12/23 12:05:39;;;;;;;85.20;41.63;;;;;;;;;;5034290;28;20037;-41
2021/12/23 12:08:15;;;;;;;76.95;38.13;;;;;;;;;;5034426;28;20021;-56
2021/12/23 12:10:44;;;;;;;82.95;44.50;;;;;;;;;;5034379;28;20030;-55
2021/12/23 12:13:17;;;;;;;75.50;39.28;;;;;;;;;;5034223;28;20021;-46
2021/12/23 12:15:48;;;;;;;79.53;41.78;;;;;;;;;;5033915;28;20485;-50
2021/12/23 12:18:22;;;;;;;77.00;39.30;;;;;;;;;;5033682;28;20049;-41
2021/12/23 12:20:52;;;;;;;73.75;40.22;;;;;;;;;;5033469;28;20029;-52
2021/12/23 12:23:31;;;;;;;89.07;41.08;;;;;;;;;;5034158;28;20022;-49
2021/12/23 12:26:01;;;;;;;83.22;40.15;;;;;;;;;;5033332;28;20029;-52
2021/12/23 12:28:29;;;;;;;93.88;45.00;;;;;;;;;;5034217;28;20147;-51
2021/12/23 12:30:58;;;;;;;86.00;42.88;;;;;;;;;;5032846;28;20108;-55
2021/12/23 12:33:26;;;;;;;80.65;43.78;;;;;;;;;;5033922;28;20030;-55
2021/12/23 12:36:01;;;;;;;85.20;43.75;;;;;;;;;;5033691;28;20619;-55
2021/12/23 12:38:30;;;;;;;86.47;43.95;;;;;;;;;;5033665;28;20025;-56
2021/12/23 12:41:00;;;;;;;92.85;46.08;;;;;;;;;;5033871;28;20021;-57
2021/12/23 12:43:55;;;;;;;80.93;43.45;;;;;;;;;;5033598;28;20101;-54
2021/12/23 12:46:32;;;;;;;87.97;45.65;;;;;;;;;;5032274;28;20044;-54
2021/12/23 12:48:59;;;;;;;94.20;47.65;;;;;;;;;;5033611;28;20038;-56
2021/12/23 12:51:27;;;;;;;87.78;44.75;;;;;;;;;;5033441;28;20075;-56
2021/12/23 12:53:56;;;;;;;94.78;46.10;;;;;;;;;;5034080;28;20048;-44
2021/12/23 12:56:23;;;;;;;91.53;48.30;;;;;;;;;;5033851;28;20112;-55
2021/12/23 12:58:52;;;;;;;92.00;49.97;;;;;;;;;;5033677;28;20020;-55
2021/12/23 13:01:31;;;;;;;97.50;50.40;;;;;;;;;;5033572;28;20389;-55
2021/12/23 13:03:59;;;;;;;92.47;46.90;;;;;;;;;;5033454;28;20033;-53
2021/12/23 13:06:36;;;;;;;92.85;50.15;;;;;;;;;;5033289;28;20033;-55
2021/12/23 13:09:04;;;;;;;93.15;48.45;;;;;;;;;;5033153;28;20026;-59
2021/12/23 13:11:30;;;;;;;95.82;47.60;;;;;;;;;;5033018;28;20095;-57
2021/12/23 13:14:01;;;;;;;120.25;60.25;;;;;;;;;;5033022;28;20075;-56
2021/12/23 13:16:28;;;;;;;113.97;55.90;;;;;;;;;;5032741;28;20049;-52
2021/12/23 13:19:13;;;;;;;124.32;59.70;;;;;;;;;;5032501;28;20030;-56
2021/12/23 13:21:40;;;;;;;114.93;56.58;;;;;;;;;;5030718;28;20171;-54
2021/12/23 13:24:06;;;;;;;99.80;52.72;;;;;;;;;;5032951;28;20022;-56
2021/12/23 13:26:33;;;;;;;105.15;54.35;;;;;;;;;;5033184;28;20049;-56
2021/12/23 13:29:00;;;;;;;104.97;53.30;;;;;;;;;;5032671;28;20029;-56
2021/12/23 13:31:28;;;;;;;87.47;48.25;;;;;;;;;;5033208;28;20020;-57
2021/12/23 13:33:56;;;;;;;97.57;51.95;;;;;;;;;;5036504;28;20025;-61
2021/12/23 13:36:28;;;;;;;93.93;50.78;;;;;;;;;;5036821;28;20358;-58
2021/12/23 13:38:56;;;;;;;91.72;51.72;;;;;;;;;;5036564;28;20555;-56
2021/12/23 13:41:29;;;;;;;106.72;54.47;;;;;;;;;;5036697;28;20025;-56
2021/12/23 13:44:00;;;;;;;95.55;50.35;;;;;;;;;;5036630;28;20010;-54
2021/12/23 13:46:27;;;;;;;93.35;48.67;;;;;;;;;;5036384;28;20093;-56
2021/12/23 13:48:56;;;;;;;103.75;54.75;;;;;;;;;;5036295;28;20097;-55
2021/12/23 13:51:23;;;;;;;98.95;53.45;;;;;;;;;;5036365;28;20521;-54
2021/12/23 13:54:02;;;;;;;89.80;49.78;;;;;;;;;;5036494;28;20048;-56
2021/12/23 13:56:30;;;;;;;100.82;54.53;;;;;;;;;;5035571;28;20040;-55
2021/12/23 13:59:10;;;;;;;107.82;54.58;;;;;;;;;;5036324;28;20112;-57
2021/12/23 14:01:55;;;;;;;116.68;57.53;;;;;;;;;;5036115;28;20024;-55
2021/12/23 14:04:28;;;;;;;108.63;54.25;;;;;;;;;;5033958;28;20029;-55
2021/12/23 14:06:54;;;;;;;105.40;56.03;;;;;;;;;;5036026;28;20096;-57
2021/12/23 14:09:34;;;;;;;123.97;59.05;;;;;;;;;;5036222;28;20013;-54
2021/12/23 14:12:04;;;;;;;121.65;60.08;;;;;;;;;;5036692;28;20025;-56
2021/12/23 14:14:30;;;;;;;130.50;64.18;;;;;;;;;;5036584;28;20041;-53
2021/12/23 14:16:56;;;;;;;137.68;67.28;;;;;;;;;;5036287;28;20120;-55
2021/12/23 14:19:39;;;;;;;116.47;58.00;;;;;;;;;;5036051;28;20022;-54
2021/12/23 14:24:54;;;;;;;100.43;54.25;;;;;;;;;;5035703;28;20437;-51
2021/12/23 14:27:20;;;;;;;105.60;54.97;;;;;;;;;;5035879;28;20024;-55
2021/12/23 14:29:48;;;;;;;114.15;57.75;;;;;;;;;;5035718;28;20389;-54
2021/12/23 14:32:15;;;;;;;102.30;51.47;;;;;;;;;;5035758;28;20026;-52
2021/12/23 14:34:41;;;;;;;107.18;54.10;;;;;;;;;;5035455;28;20477;-55
2021/12/23 14:37:10;;;;;;;120.32;62.90;;;;;;;;;;5035241;28;20051;-54
2021/12/23 14:39:39;;;;;;;107.55;56.22;;;;;;;;;;5035521;28;20018;-54
2021/12/23 14:42:18;;;;;;;103.68;55.25;;;;;;;;;;5035380;28;20044;-55
2021/12/23 14:44:44;;;;;;;95.63;52.28;;;;;;;;;;5035055;28;20104;-53
2021/12/23 14:47:21;;;;;;;101.75;57.10;;;;;;;;;;5035745;28;20017;-53
2021/12/23 14:52:52;;;;;;;102.35;54.78;;;;;;;;;;5013803;28;20088;-56
2021/12/23 14:55:25;;;;;;;101.60;52.63;;;;;;;;;;5013510;28;20073;-55
2021/12/23 14:57:56;;;;;;;100.28;52.90;;;;;;;;;;5013783;28;20038;-54
2021/12/23 15:00:29;;;;;;;98.13;52.33;;;;;;;;;;5013444;28;20462;-54
2021/12/23 15:03:15;;;;;;;105.15;53.70;;;;;;;;;;5013276;28;20025;-56
2021/12/23 15:05:45;;;;;;;106.88;54.60;;;;;;;;;;5012005;28;20169;-55
2021/12/23 15:08:31;;;;;;;98.43;53.80;;;;;;;;;;5013601;28;20450;-53
2021/12/23 15:10:59;;;;;;;105.90;54.78;;;;;;;;;;5013572;28;20432;-56
2021/12/23 15:13:28;;;;;;;92.80;51.22;;;;;;;;;;5013566;28;20529;-56
2021/12/23 15:16:14;;;;;;;100.63;54.67;;;;;;;;;;5013386;28;20092;-56
2021/12/23 15:21:11;;;;;;;116.30;57.28;;;;;;;;;;5013394;28;20492;-57
2021/12/23 15:23:40;;;;;;;99.65;53.92;;;;;;;;;;5013476;28;20129;-57
2021/12/23 15:26:23;;;;;;;100.90;53.75;;;;;;;;;;5013134;28;20034;-56
2021/12/23 15:29:08;;;;;;;98.82;51.85;;;;;;;;;;5013623;28;20030;-51
2021/12/23 15:31:34;;;;;;;108.60;55.95;;;;;;;;;;5015218;28;20470;-54
2021/12/23 15:34:01;;;;;;;130.07;62.15;;;;;;;;;;5015199;28;20029;-49
2021/12/23 15:36:27;;;;;;;139.70;70.82;;;;;;;;;;5015272;28;20497;-54
2021/12/23 15:38:53;;;;;;;137.95;65.35;;;;;;;;;;5015110;28;20026;-50
2021/12/23 15:41:21;;;;;;;130.93;65.18;;;;;;;;;;5015018;28;20026;-57
2021/12/23 15:43:47;;;;;;;152.63;73.20;;;;;;;;;;5015240;28;20478;-57
2021/12/23 15:46:13;;;;;;;113.78;57.30;;;;;;;;;;5015105;28;20022;-48